sensor_id;sensor_type;location;lat;lon;timestamp;P1;durP1;ratioP1;P2;durP2;ratioP2
44137;SDS011;29800;55.942;37.314;2024-02-21T00:01:08;15.40;;;8.88;;
44137;SDS011;29800;55.942;37.314;2024-02-21T00:03:41;13.13;;;8.05;;
44137;SDS011;29800;55.942;37.314;2024-02-21T00:06:07;14.02;;;7.45;;
44137;SDS011;29800;55.942;37.314;2024-02-21T00:08:33;14.93;;;7.75;;
44137;SDS011;29800;55.942;37.314;2024-02-21T00:10:59;14.30;;;8.73;;
44137;SDS011;29800;55.942;37.314;2024-02-21T00:13:26;12.55;;;7.88;;
44137;SDS011;29800;55.942;37.314;2024-02-21T00:15:52;12.32;;;7.65;;
44137;SDS011;29800;55.942;37.314;2024-02-21T00:18:18;13.43;;;8.75;;
44137;SDS011;29800;55.942;37.314;2024-02-21T00:20:44;14.05;;;8.00;;
44137;SDS011;29800;55.942;37.314;2024-02-21T00:23:10;14.82;;;8.40;;
44137;SDS011;29800;55.942;37.314;2024-02-21T00:25:37;12.40;;;7.75;;
44137;SDS011;29800;55.942;37.314;2024-02-21T00:28:03;13.98;;;8.20;;
44137;SDS011;29800;55.942;37.314;2024-02-21T00:30:31;12.55;;;7.28;;
44137;SDS011;29800;55.942;37.314;2024-02-21T00:32:57;11.90;;;7.25;;
44137;SDS011;29800;55.942;37.314;2024-02-21T00:35:24;12.98;;;7.70;;
44137;SDS011;29800;55.942;37.314;2024-02-21T00:37:51;17.30;;;8.93;;
44137;SDS011;29800;55.942;37.314;2024-02-21T00:40:17;14.43;;;7.72;;
44137;SDS011;29800;55.942;37.314;2024-02-21T00:42:46;12.48;;;7.60;;
44137;SDS011;29800;55.942;37.314;2024-02-21T00:45:13;14.50;;;8.18;;
44137;SDS011;29800;55.942;37.314;2024-02-21T00:47:39;11.90;;;8.00;;
44137;SDS011;29800;55.942;37.314;2024-02-21T00:50:05;12.20;;;7.88;;
44137;SDS011;29800;55.942;37.314;2024-02-21T00:52:33;11.73;;;7.07;;
44137;SDS011;29800;55.942;37.314;2024-02-21T00:54:59;13.75;;;7.07;;
44137;SDS011;29800;55.942;37.314;2024-02-21T00:57:26;13.82;;;7.47;;
44137;SDS011;29800;55.942;37.314;2024-02-21T00:59:52;13.07;;;7.68;;
44137;SDS011;29800;55.942;37.314;2024-02-21T01:02:18;15.05;;;8.10;;
44137;SDS011;29800;55.942;37.314;2024-02-21T01:04:44;12.07;;;7.80;;
44137;SDS011;29800;55.942;37.314;2024-02-21T01:07:11;15.65;;;7.68;;
44137;SDS011;29800;55.942;37.314;2024-02-21T01:09:37;13.05;;;7.72;;
44137;SDS011;29800;55.942;37.314;2024-02-21T01:12:03;14.27;;;7.95;;
44137;SDS011;29800;55.942;37.314;2024-02-21T01:14:29;13.38;;;7.57;;
44137;SDS011;29800;55.942;37.314;2024-02-21T01:16:55;13.35;;;7.50;;
44137;SDS011;29800;55.942;37.314;2024-02-21T01:19:22;15.05;;;8.15;;
44137;SDS011;29800;55.942;37.314;2024-02-21T01:21:48;15.75;;;8.88;;
44137;SDS011;29800;55.942;37.314;2024-02-21T01:24:14;16.60;;;8.43;;
44137;SDS011;29800;55.942;37.314;2024-02-21T01:26:40;15.00;;;8.57;;
44137;SDS011;29800;55.942;37.314;2024-02-21T01:29:06;14.32;;;8.05;;
44137;SDS011;29800;55.942;37.314;2024-02-21T01:31:33;14.25;;;8.05;;
44137;SDS011;29800;55.942;37.314;2024-02-21T01:33:59;14.48;;;8.45;;
44137;SDS011;29800;55.942;37.314;2024-02-21T01:36:25;13.93;;;8.35;;
44137;SDS011;29800;55.942;37.314;2024-02-21T01:38:51;15.23;;;8.68;;
44137;SDS011;29800;55.942;37.314;2024-02-21T01:41:17;16.20;;;8.05;;
44137;SDS011;29800;55.942;37.314;2024-02-21T01:43:44;13.95;;;8.45;;
44137;SDS011;29800;55.942;37.314;2024-02-21T01:46:10;14.95;;;7.57;;
44137;SDS011;29800;55.942;37.314;2024-02-21T01:48:37;13.65;;;8.10;;
44137;SDS011;29800;55.942;37.314;2024-02-21T01:51:04;14.32;;;8.70;;
44137;SDS011;29800;55.942;37.314;2024-02-21T01:53:31;19.27;;;8.85;;
44137;SDS011;29800;55.942;37.314;2024-02-21T01:56:01;17.00;;;9.07;;
44137;SDS011;29800;55.942;37.314;2024-02-21T01:58:28;16.20;;;9.40;;
44137;SDS011;29800;55.942;37.314;2024-02-21T02:00:56;13.50;;;8.73;;
44137;SDS011;29800;55.942;37.314;2024-02-21T02:03:22;16.25;;;9.00;;
44137;SDS011;29800;55.942;37.314;2024-02-21T02:05:50;16.50;;;9.02;;
44137;SDS011;29800;55.942;37.314;2024-02-21T02:08:17;16.02;;;9.05;;
44137;SDS011;29800;55.942;37.314;2024-02-21T02:10:45;16.10;;;8.88;;
44137;SDS011;29800;55.942;37.314;2024-02-21T02:13:12;18.15;;;9.10;;
44137;SDS011;29800;55.942;37.314;2024-02-21T02:15:39;15.10;;;8.85;;
44137;SDS011;29800;55.942;37.314;2024-02-21T02:18:07;21.55;;;9.73;;
44137;SDS011;29800;55.942;37.314;2024-02-21T02:20:34;17.30;;;9.82;;
44137;SDS011;29800;55.942;37.314;2024-02-21T02:23:03;15.75;;;8.95;;
44137;SDS011;29800;55.942;37.314;2024-02-21T02:25:36;15.55;;;9.38;;
44137;SDS011;29800;55.942;37.314;2024-02-21T02:28:03;15.88;;;9.13;;
44137;SDS011;29800;55.942;37.314;2024-02-21T02:30:34;16.40;;;8.85;;
44137;SDS011;29800;55.942;37.314;2024-02-21T02:33:03;17.73;;;9.25;;
44137;SDS011;29800;55.942;37.314;2024-02-21T02:35:30;14.63;;;8.75;;
44137;SDS011;29800;55.942;37.314;2024-02-21T02:37:57;17.90;;;9.88;;
44137;SDS011;29800;55.942;37.314;2024-02-21T02:40:24;18.60;;;9.88;;
44137;SDS011;29800;55.942;37.314;2024-02-21T02:42:50;18.83;;;10.27;;
44137;SDS011;29800;55.942;37.314;2024-02-21T02:45:17;18.83;;;9.75;;
44137;SDS011;29800;55.942;37.314;2024-02-21T02:47:44;17.80;;;9.50;;
44137;SDS011;29800;55.942;37.314;2024-02-21T02:50:14;15.60;;;8.55;;
44137;SDS011;29800;55.942;37.314;2024-02-21T02:52:40;19.35;;;10.00;;
44137;SDS011;29800;55.942;37.314;2024-02-21T02:55:07;16.60;;;9.48;;
44137;SDS011;29800;55.942;37.314;2024-02-21T02:57:33;18.40;;;9.52;;
44137;SDS011;29800;55.942;37.314;2024-02-21T02:59:59;17.08;;;9.15;;
44137;SDS011;29800;55.942;37.314;2024-02-21T03:02:26;18.23;;;10.50;;
44137;SDS011;29800;55.942;37.314;2024-02-21T03:04:52;17.42;;;9.82;;
44137;SDS011;29800;55.942;37.314;2024-02-21T03:07:19;15.82;;;9.25;;
44137;SDS011;29800;55.942;37.314;2024-02-21T03:09:45;17.67;;;9.98;;
44137;SDS011;29800;55.942;37.314;2024-02-21T03:12:12;18.90;;;10.05;;
44137;SDS011;29800;55.942;37.314;2024-02-21T03:14:38;16.13;;;10.07;;
44137;SDS011;29800;55.942;37.314;2024-02-21T03:17:04;15.65;;;9.73;;
44137;SDS011;29800;55.942;37.314;2024-02-21T03:19:30;16.58;;;9.70;;
44137;SDS011;29800;55.942;37.314;2024-02-21T03:21:57;17.08;;;10.05;;
44137;SDS011;29800;55.942;37.314;2024-02-21T03:24:23;18.90;;;9.95;;
44137;SDS011;29800;55.942;37.314;2024-02-21T03:26:49;18.77;;;10.63;;
44137;SDS011;29800;55.942;37.314;2024-02-21T03:29:16;18.40;;;10.88;;
44137;SDS011;29800;55.942;37.314;2024-02-21T03:31:43;18.17;;;9.57;;
44137;SDS011;29800;55.942;37.314;2024-02-21T03:34:12;18.63;;;10.70;;
44137;SDS011;29800;55.942;37.314;2024-02-21T03:36:38;19.65;;;11.05;;
44137;SDS011;29800;55.942;37.314;2024-02-21T03:39:04;20.33;;;10.55;;
44137;SDS011;29800;55.942;37.314;2024-02-21T03:41:30;16.95;;;10.18;;
44137;SDS011;29800;55.942;37.314;2024-02-21T03:43:57;17.02;;;10.48;;
44137;SDS011;29800;55.942;37.314;2024-02-21T03:46:23;16.75;;;10.40;;
44137;SDS011;29800;55.942;37.314;2024-02-21T03:48:50;18.85;;;10.85;;
44137;SDS011;29800;55.942;37.314;2024-02-21T03:51:17;18.10;;;10.60;;
44137;SDS011;29800;55.942;37.314;2024-02-21T03:53:43;16.98;;;10.60;;
44137;SDS011;29800;55.942;37.314;2024-02-21T03:56:09;17.98;;;10.43;;
44137;SDS011;29800;55.942;37.314;2024-02-21T03:58:35;19.40;;;11.02;;
44137;SDS011;29800;55.942;37.314;2024-02-21T04:01:02;16.98;;;10.75;;
44137;SDS011;29800;55.942;37.314;2024-02-21T04:03:30;18.83;;;10.88;;
44137;SDS011;29800;55.942;37.314;2024-02-21T04:05:56;21.10;;;10.93;;
44137;SDS011;29800;55.942;37.314;2024-02-21T04:08:23;18.05;;;11.05;;
44137;SDS011;29800;55.942;37.314;2024-02-21T04:10:49;20.98;;;11.40;;
44137;SDS011;29800;55.942;37.314;2024-02-21T04:13:15;21.48;;;10.95;;
44137;SDS011;29800;55.942;37.314;2024-02-21T04:15:41;21.95;;;10.85;;
44137;SDS011;29800;55.942;37.314;2024-02-21T04:18:08;20.45;;;10.52;;
44137;SDS011;29800;55.942;37.314;2024-02-21T04:20:34;19.35;;;10.90;;
44137;SDS011;29800;55.942;37.314;2024-02-21T04:23:01;17.10;;;10.35;;
44137;SDS011;29800;55.942;37.314;2024-02-21T04:25:27;18.02;;;10.57;;
44137;SDS011;29800;55.942;37.314;2024-02-21T04:27:53;20.67;;;11.32;;
44137;SDS011;29800;55.942;37.314;2024-02-21T04:30:19;19.58;;;11.73;;
44137;SDS011;29800;55.942;37.314;2024-02-21T04:32:45;20.30;;;11.35;;
44137;SDS011;29800;55.942;37.314;2024-02-21T04:35:12;25.45;;;12.23;;
44137;SDS011;29800;55.942;37.314;2024-02-21T04:37:38;22.60;;;12.13;;
44137;SDS011;29800;55.942;37.314;2024-02-21T04:40:04;24.75;;;12.20;;
44137;SDS011;29800;55.942;37.314;2024-02-21T04:42:31;22.60;;;11.38;;
44137;SDS011;29800;55.942;37.314;2024-02-21T04:44:57;20.73;;;11.98;;
44137;SDS011;29800;55.942;37.314;2024-02-21T04:47:23;19.38;;;11.13;;
44137;SDS011;29800;55.942;37.314;2024-02-21T04:49:50;21.58;;;11.40;;
44137;SDS011;29800;55.942;37.314;2024-02-21T04:52:16;19.30;;;12.05;;
44137;SDS011;29800;55.942;37.314;2024-02-21T04:54:42;20.70;;;11.23;;
44137;SDS011;29800;55.942;37.314;2024-02-21T04:57:09;20.85;;;11.50;;
44137;SDS011;29800;55.942;37.314;2024-02-21T04:59:36;21.58;;;10.93;;
44137;SDS011;29800;55.942;37.314;2024-02-21T05:02:02;20.23;;;11.30;;
44137;SDS011;29800;55.942;37.314;2024-02-21T05:04:29;20.38;;;11.60;;
44137;SDS011;29800;55.942;37.314;2024-02-21T05:06:55;21.63;;;12.15;;
44137;SDS011;29800;55.942;37.314;2024-02-21T05:09:21;21.65;;;12.38;;
44137;SDS011;29800;55.942;37.314;2024-02-21T05:11:47;25.15;;;12.32;;
44137;SDS011;29800;55.942;37.314;2024-02-21T05:14:13;21.27;;;12.75;;
44137;SDS011;29800;55.942;37.314;2024-02-21T05:16:40;21.90;;;12.80;;
44137;SDS011;29800;55.942;37.314;2024-02-21T05:19:06;20.83;;;12.02;;
44137;SDS011;29800;55.942;37.314;2024-02-21T05:21:32;22.92;;;13.27;;
44137;SDS011;29800;55.942;37.314;2024-02-21T05:23:58;20.83;;;11.52;;
44137;SDS011;29800;55.942;37.314;2024-02-21T05:26:25;19.48;;;11.48;;
44137;SDS011;29800;55.942;37.314;2024-02-21T05:28:53;27.95;;;12.27;;
44137;SDS011;29800;55.942;37.314;2024-02-21T05:31:20;24.83;;;12.90;;
44137;SDS011;29800;55.942;37.314;2024-02-21T05:33:49;21.15;;;11.70;;
44137;SDS011;29800;55.942;37.314;2024-02-21T05:36:16;21.98;;;12.13;;
44137;SDS011;29800;55.942;37.314;2024-02-21T05:38:42;22.42;;;12.20;;
44137;SDS011;29800;55.942;37.314;2024-02-21T05:41:09;20.52;;;12.43;;
44137;SDS011;29800;55.942;37.314;2024-02-21T05:43:35;21.35;;;11.25;;
44137;SDS011;29800;55.942;37.314;2024-02-21T05:46:01;22.15;;;12.05;;
44137;SDS011;29800;55.942;37.314;2024-02-21T05:48:28;23.73;;;12.60;;
44137;SDS011;29800;55.942;37.314;2024-02-21T05:50:54;23.67;;;12.75;;
44137;SDS011;29800;55.942;37.314;2024-02-21T05:53:20;24.38;;;13.88;;
44137;SDS011;29800;55.942;37.314;2024-02-21T05:55:46;22.33;;;12.32;;
44137;SDS011;29800;55.942;37.314;2024-02-21T05:58:12;22.10;;;12.70;;
44137;SDS011;29800;55.942;37.314;2024-02-21T06:00:39;25.88;;;13.73;;
44137;SDS011;29800;55.942;37.314;2024-02-21T06:03:06;22.88;;;12.70;;
44137;SDS011;29800;55.942;37.314;2024-02-21T06:05:36;23.27;;;12.23;;
44137;SDS011;29800;55.942;37.314;2024-02-21T06:08:06;22.38;;;12.43;;
44137;SDS011;29800;55.942;37.314;2024-02-21T06:10:33;24.13;;;12.65;;
44137;SDS011;29800;55.942;37.314;2024-02-21T06:12:59;21.58;;;11.98;;
44137;SDS011;29800;55.942;37.314;2024-02-21T06:15:25;26.35;;;12.75;;
44137;SDS011;29800;55.942;37.314;2024-02-21T06:17:52;28.08;;;13.57;;
44137;SDS011;29800;55.942;37.314;2024-02-21T06:20:18;23.33;;;13.27;;
44137;SDS011;29800;55.942;37.314;2024-02-21T06:22:44;24.05;;;12.85;;
44137;SDS011;29800;55.942;37.314;2024-02-21T06:25:10;24.38;;;13.63;;
44137;SDS011;29800;55.942;37.314;2024-02-21T06:27:36;24.05;;;13.10;;
44137;SDS011;29800;55.942;37.314;2024-02-21T06:30:02;22.08;;;12.65;;
44137;SDS011;29800;55.942;37.314;2024-02-21T06:32:30;24.10;;;12.48;;
44137;SDS011;29800;55.942;37.314;2024-02-21T06:34:56;25.83;;;12.65;;
44137;SDS011;29800;55.942;37.314;2024-02-21T06:37:22;25.08;;;13.63;;
44137;SDS011;29800;55.942;37.314;2024-02-21T06:39:48;24.83;;;13.30;;
44137;SDS011;29800;55.942;37.314;2024-02-21T06:42:15;20.98;;;12.20;;
44137;SDS011;29800;55.942;37.314;2024-02-21T06:44:41;21.30;;;12.00;;
44137;SDS011;29800;55.942;37.314;2024-02-21T06:47:07;19.38;;;11.00;;
44137;SDS011;29800;55.942;37.314;2024-02-21T06:49:36;23.20;;;11.07;;
44137;SDS011;29800;55.942;37.314;2024-02-21T06:52:03;24.42;;;13.18;;
44137;SDS011;29800;55.942;37.314;2024-02-21T06:54:30;28.08;;;13.77;;
44137;SDS011;29800;55.942;37.314;2024-02-21T06:56:56;26.05;;;13.40;;
44137;SDS011;29800;55.942;37.314;2024-02-21T06:59:22;21.33;;;12.60;;
44137;SDS011;29800;55.942;37.314;2024-02-21T07:01:49;22.20;;;12.95;;
44137;SDS011;29800;55.942;37.314;2024-02-21T07:04:18;25.20;;;12.68;;
44137;SDS011;29800;55.942;37.314;2024-02-21T07:06:45;21.83;;;12.77;;
44137;SDS011;29800;55.942;37.314;2024-02-21T07:09:11;22.40;;;12.68;;
44137;SDS011;29800;55.942;37.314;2024-02-21T07:11:37;25.60;;;13.13;;
44137;SDS011;29800;55.942;37.314;2024-02-21T07:14:03;26.00;;;13.00;;
44137;SDS011;29800;55.942;37.314;2024-02-21T07:16:30;24.73;;;12.80;;
44137;SDS011;29800;55.942;37.314;2024-02-21T07:18:58;26.95;;;13.18;;
44137;SDS011;29800;55.942;37.314;2024-02-21T07:21:24;25.73;;;12.82;;
44137;SDS011;29800;55.942;37.314;2024-02-21T07:23:50;24.17;;;13.07;;
44137;SDS011;29800;55.942;37.314;2024-02-21T07:26:17;27.35;;;13.85;;
44137;SDS011;29800;55.942;37.314;2024-02-21T07:28:43;26.38;;;13.32;;
44137;SDS011;29800;55.942;37.314;2024-02-21T07:31:09;23.88;;;13.10;;
44137;SDS011;29800;55.942;37.314;2024-02-21T07:33:35;22.88;;;12.02;;
44137;SDS011;29800;55.942;37.314;2024-02-21T07:36:05;24.98;;;13.50;;
44137;SDS011;29800;55.942;37.314;2024-02-21T07:38:34;22.25;;;13.30;;
44137;SDS011;29800;55.942;37.314;2024-02-21T07:41:00;25.83;;;13.45;;
44137;SDS011;29800;55.942;37.314;2024-02-21T07:43:26;22.05;;;12.13;;
44137;SDS011;29800;55.942;37.314;2024-02-21T07:45:52;25.90;;;14.48;;
44137;SDS011;29800;55.942;37.314;2024-02-21T07:48:19;20.13;;;11.90;;
44137;SDS011;29800;55.942;37.314;2024-02-21T07:50:45;23.88;;;12.57;;
44137;SDS011;29800;55.942;37.314;2024-02-21T07:53:11;23.08;;;12.35;;
44137;SDS011;29800;55.942;37.314;2024-02-21T07:55:37;23.77;;;12.77;;
44137;SDS011;29800;55.942;37.314;2024-02-21T07:58:03;25.08;;;12.50;;
44137;SDS011;29800;55.942;37.314;2024-02-21T08:00:30;25.60;;;12.68;;
44137;SDS011;29800;55.942;37.314;2024-02-21T08:02:56;21.27;;;12.43;;
44137;SDS011;29800;55.942;37.314;2024-02-21T08:05:22;20.13;;;12.40;;
44137;SDS011;29800;55.942;37.314;2024-02-21T08:07:48;24.55;;;13.48;;
44137;SDS011;29800;55.942;37.314;2024-02-21T08:10:15;22.15;;;12.60;;
44137;SDS011;29800;55.942;37.314;2024-02-21T08:12:41;22.17;;;12.85;;
44137;SDS011;29800;55.942;37.314;2024-02-21T08:15:07;22.73;;;13.02;;
44137;SDS011;29800;55.942;37.314;2024-02-21T08:17:36;24.50;;;12.70;;
44137;SDS011;29800;55.942;37.314;2024-02-21T08:20:03;23.42;;;13.00;;
44137;SDS011;29800;55.942;37.314;2024-02-21T08:22:30;27.15;;;15.05;;
44137;SDS011;29800;55.942;37.314;2024-02-21T08:24:56;20.35;;;12.48;;
44137;SDS011;29800;55.942;37.314;2024-02-21T08:27:23;19.65;;;12.45;;
44137;SDS011;29800;55.942;37.314;2024-02-21T08:29:49;22.17;;;12.48;;
44137;SDS011;29800;55.942;37.314;2024-02-21T08:32:15;19.75;;;12.25;;
44137;SDS011;29800;55.942;37.314;2024-02-21T08:34:41;21.67;;;11.93;;
44137;SDS011;29800;55.942;37.314;2024-02-21T08:37:07;20.90;;;12.48;;
44137;SDS011;29800;55.942;37.314;2024-02-21T08:39:33;20.25;;;12.52;;
44137;SDS011;29800;55.942;37.314;2024-02-21T08:42:00;21.23;;;12.10;;
44137;SDS011;29800;55.942;37.314;2024-02-21T08:44:27;23.90;;;12.90;;
44137;SDS011;29800;55.942;37.314;2024-02-21T08:46:54;21.63;;;12.75;;
44137;SDS011;29800;55.942;37.314;2024-02-21T08:49:20;20.23;;;12.23;;
44137;SDS011;29800;55.942;37.314;2024-02-21T08:51:46;21.52;;;12.68;;
44137;SDS011;29800;55.942;37.314;2024-02-21T08:54:13;24.25;;;12.75;;
44137;SDS011;29800;55.942;37.314;2024-02-21T08:56:39;19.92;;;12.23;;
44137;SDS011;29800;55.942;37.314;2024-02-21T08:59:05;20.70;;;12.90;;
44137;SDS011;29800;55.942;37.314;2024-02-21T09:01:31;24.80;;;13.27;;
44137;SDS011;29800;55.942;37.314;2024-02-21T09:03:59;18.30;;;11.48;;
44137;SDS011;29800;55.942;37.314;2024-02-21T09:06:26;20.20;;;12.60;;
44137;SDS011;29800;55.942;37.314;2024-02-21T09:08:55;21.30;;;12.57;;
44137;SDS011;29800;55.942;37.314;2024-02-21T09:11:22;23.13;;;12.60;;
44137;SDS011;29800;55.942;37.314;2024-02-21T09:13:48;19.13;;;12.13;;
44137;SDS011;29800;55.942;37.314;2024-02-21T09:16:15;19.65;;;12.35;;
44137;SDS011;29800;55.942;37.314;2024-02-21T09:18:41;22.67;;;12.63;;
44137;SDS011;29800;55.942;37.314;2024-02-21T09:21:08;23.40;;;12.68;;
44137;SDS011;29800;55.942;37.314;2024-02-21T09:23:34;23.48;;;13.25;;
44137;SDS011;29800;55.942;37.314;2024-02-21T09:26:00;21.02;;;12.93;;
44137;SDS011;29800;55.942;37.314;2024-02-21T09:28:29;22.15;;;12.43;;
44137;SDS011;29800;55.942;37.314;2024-02-21T09:30:56;20.77;;;13.02;;
44137;SDS011;29800;55.942;37.314;2024-02-21T09:33:22;19.23;;;12.60;;
44137;SDS011;29800;55.942;37.314;2024-02-21T09:35:48;24.20;;;11.85;;
44137;SDS011;29800;55.942;37.314;2024-02-21T09:38:15;22.88;;;12.80;;
44137;SDS011;29800;55.942;37.314;2024-02-21T09:40:41;24.35;;;12.77;;
44137;SDS011;29800;55.942;37.314;2024-02-21T09:43:08;22.80;;;12.52;;
44137;SDS011;29800;55.942;37.314;2024-02-21T09:45:34;20.80;;;12.60;;
44137;SDS011;29800;55.942;37.314;2024-02-21T09:51:03;24.17;;;12.30;;
44137;SDS011;29800;55.942;37.314;2024-02-21T09:53:31;23.20;;;13.20;;
44137;SDS011;29800;55.942;37.314;2024-02-21T09:56:00;29.45;;;13.40;;
44137;SDS011;29800;55.942;37.314;2024-02-21T09:58:27;25.77;;;13.38;;
44137;SDS011;29800;55.942;37.314;2024-02-21T10:00:53;23.65;;;13.45;;
44137;SDS011;29800;55.942;37.314;2024-02-21T10:03:20;26.50;;;14.13;;
44137;SDS011;29800;55.942;37.314;2024-02-21T10:05:47;22.15;;;13.13;;
44137;SDS011;29800;55.942;37.314;2024-02-21T10:08:17;24.92;;;12.75;;
44137;SDS011;29800;55.942;37.314;2024-02-21T10:10:45;23.83;;;12.55;;
44137;SDS011;29800;55.942;37.314;2024-02-21T10:13:23;20.95;;;12.07;;
44137;SDS011;29800;55.942;37.314;2024-02-21T10:16:04;22.60;;;12.85;;
44137;SDS011;29800;55.942;37.314;2024-02-21T10:18:34;21.33;;;12.00;;
44137;SDS011;29800;55.942;37.314;2024-02-21T10:21:04;24.10;;;13.40;;
44137;SDS011;29800;55.942;37.314;2024-02-21T10:23:45;21.60;;;13.15;;
44137;SDS011;29800;55.942;37.314;2024-02-21T10:26:13;23.92;;;12.95;;
44137;SDS011;29800;55.942;37.314;2024-02-21T10:28:40;25.13;;;12.80;;
44137;SDS011;29800;55.942;37.314;2024-02-21T10:31:08;22.08;;;12.32;;
44137;SDS011;29800;55.942;37.314;2024-02-21T10:33:36;23.52;;;12.45;;
44137;SDS011;29800;55.942;37.314;2024-02-21T10:36:07;24.98;;;12.48;;
44137;SDS011;29800;55.942;37.314;2024-02-21T10:38:37;21.48;;;11.88;;
44137;SDS011;29800;55.942;37.314;2024-02-21T10:41:04;20.98;;;12.27;;
44137;SDS011;29800;55.942;37.314;2024-02-21T10:43:39;20.25;;;11.57;;
44137;SDS011;29800;55.942;37.314;2024-02-21T10:46:06;21.17;;;12.30;;
44137;SDS011;29800;55.942;37.314;2024-02-21T10:48:44;22.67;;;11.90;;
44137;SDS011;29800;55.942;37.314;2024-02-21T10:56:22;20.98;;;12.50;;
44137;SDS011;29800;55.942;37.314;2024-02-21T10:58:54;20.65;;;11.75;;
44137;SDS011;29800;55.942;37.314;2024-02-21T11:01:22;24.05;;;12.27;;
44137;SDS011;29800;55.942;37.314;2024-02-21T11:03:52;23.63;;;12.30;;
44137;SDS011;29800;55.942;37.314;2024-02-21T11:06:20;22.20;;;11.82;;
44137;SDS011;29800;55.942;37.314;2024-02-21T11:08:58;23.48;;;12.70;;
44137;SDS011;29800;55.942;37.314;2024-02-21T11:11:28;20.05;;;11.68;;
44137;SDS011;29800;55.942;37.314;2024-02-21T11:14:08;21.52;;;12.07;;
44137;SDS011;29800;55.942;37.314;2024-02-21T11:16:39;23.90;;;11.98;;
44137;SDS011;29800;55.942;37.314;2024-02-21T11:19:20;22.83;;;11.95;;
44137;SDS011;29800;55.942;37.314;2024-02-21T11:21:48;24.27;;;12.07;;
44137;SDS011;29800;55.942;37.314;2024-02-21T11:24:25;22.02;;;11.73;;
44137;SDS011;29800;55.942;37.314;2024-02-21T11:26:55;23.60;;;11.27;;
44137;SDS011;29800;55.942;37.314;2024-02-21T11:29:22;24.20;;;11.90;;
44137;SDS011;29800;55.942;37.314;2024-02-21T11:31:50;20.80;;;11.65;;
44137;SDS011;29800;55.942;37.314;2024-02-21T11:34:18;19.55;;;10.60;;
44137;SDS011;29800;55.942;37.314;2024-02-21T11:36:48;23.55;;;12.02;;
44137;SDS011;29800;55.942;37.314;2024-02-21T11:39:23;20.35;;;11.65;;
44137;SDS011;29800;55.942;37.314;2024-02-21T11:42:06;21.05;;;12.10;;
44137;SDS011;29800;55.942;37.314;2024-02-21T11:44:36;19.55;;;11.20;;
44137;SDS011;29800;55.942;37.314;2024-02-21T11:47:08;21.08;;;11.43;;
44137;SDS011;29800;55.942;37.314;2024-02-21T11:49:38;20.92;;;11.95;;
44137;SDS011;29800;55.942;37.314;2024-02-21T11:52:07;22.80;;;12.35;;
44137;SDS011;29800;55.942;37.314;2024-02-21T11:54:34;25.63;;;13.00;;
44137;SDS011;29800;55.942;37.314;2024-02-21T11:57:00;26.90;;;13.77;;
44137;SDS011;29800;55.942;37.314;2024-02-21T11:59:29;22.55;;;12.20;;
44137;SDS011;29800;55.942;37.314;2024-02-21T12:01:58;23.83;;;12.30;;
44137;SDS011;29800;55.942;37.314;2024-02-21T12:04:29;22.02;;;12.38;;
44137;SDS011;29800;55.942;37.314;2024-02-21T12:06:58;22.92;;;12.43;;
44137;SDS011;29800;55.942;37.314;2024-02-21T12:09:25;23.48;;;12.20;;
44137;SDS011;29800;55.942;37.314;2024-02-21T12:12:02;20.83;;;11.50;;
44137;SDS011;29800;55.942;37.314;2024-02-21T12:14:29;27.95;;;13.48;;
44137;SDS011;29800;55.942;37.314;2024-02-21T12:16:57;23.77;;;12.27;;
44137;SDS011;29800;55.942;37.314;2024-02-21T12:19:24;23.05;;;12.95;;
44137;SDS011;29800;55.942;37.314;2024-02-21T12:21:50;22.33;;;11.45;;
44137;SDS011;29800;55.942;37.314;2024-02-21T12:24:20;24.05;;;12.00;;
44137;SDS011;29800;55.942;37.314;2024-02-21T12:26:51;23.63;;;12.65;;
44137;SDS011;29800;55.942;37.314;2024-02-21T12:29:22;26.55;;;11.80;;
44137;SDS011;29800;55.942;37.314;2024-02-21T12:31:50;22.15;;;12.30;;
44137;SDS011;29800;55.942;37.314;2024-02-21T12:34:17;19.42;;;11.15;;
44137;SDS011;29800;55.942;37.314;2024-02-21T12:36:44;20.95;;;12.18;;
44137;SDS011;29800;55.942;37.314;2024-02-21T12:39:14;22.40;;;11.55;;
44137;SDS011;29800;55.942;37.314;2024-02-21T12:41:40;18.63;;;10.73;;
44137;SDS011;29800;55.942;37.314;2024-02-21T12:44:10;23.13;;;11.77;;
44137;SDS011;29800;55.942;37.314;2024-02-21T12:46:37;25.42;;;12.05;;
44137;SDS011;29800;55.942;37.314;2024-02-21T12:49:05;22.98;;;12.02;;
44137;SDS011;29800;55.942;37.314;2024-02-21T12:51:34;21.55;;;11.82;;
44137;SDS011;29800;55.942;37.314;2024-02-21T12:54:00;22.23;;;12.38;;
44137;SDS011;29800;55.942;37.314;2024-02-21T12:56:28;24.55;;;12.13;;
44137;SDS011;29800;55.942;37.314;2024-02-21T12:58:57;20.50;;;11.85;;
44137;SDS011;29800;55.942;37.314;2024-02-21T13:01:23;21.83;;;12.13;;
44137;SDS011;29800;55.942;37.314;2024-02-21T13:03:50;20.60;;;11.13;;
44137;SDS011;29800;55.942;37.314;2024-02-21T13:06:16;20.10;;;11.60;;
44137;SDS011;29800;55.942;37.314;2024-02-21T13:08:44;22.33;;;11.65;;
44137;SDS011;29800;55.942;37.314;2024-02-21T13:11:12;25.80;;;12.63;;
44137;SDS011;29800;55.942;37.314;2024-02-21T13:13:38;22.60;;;11.80;;
44137;SDS011;29800;55.942;37.314;2024-02-21T13:16:05;23.05;;;12.05;;
44137;SDS011;29800;55.942;37.314;2024-02-21T13:18:31;24.02;;;12.40;;
44137;SDS011;29800;55.942;37.314;2024-02-21T13:20:58;25.73;;;11.95;;
44137;SDS011;29800;55.942;37.314;2024-02-21T13:23:24;25.50;;;12.20;;
44137;SDS011;29800;55.942;37.314;2024-02-21T13:25:50;25.75;;;12.82;;
44137;SDS011;29800;55.942;37.314;2024-02-21T13:28:17;22.38;;;12.15;;
44137;SDS011;29800;55.942;37.314;2024-02-21T13:30:43;28.30;;;12.55;;
44137;SDS011;29800;55.942;37.314;2024-02-21T13:33:09;26.67;;;13.35;;
44137;SDS011;29800;55.942;37.314;2024-02-21T13:35:35;26.20;;;13.18;;
44137;SDS011;29800;55.942;37.314;2024-02-21T13:38:02;22.83;;;12.75;;
44137;SDS011;29800;55.942;37.314;2024-02-21T13:40:29;26.52;;;12.85;;
44137;SDS011;29800;55.942;37.314;2024-02-21T13:42:55;24.35;;;12.98;;
44137;SDS011;29800;55.942;37.314;2024-02-21T13:45:22;23.80;;;12.50;;
44137;SDS011;29800;55.942;37.314;2024-02-21T13:47:48;26.05;;;12.52;;
44137;SDS011;29800;55.942;37.314;2024-02-21T13:50:15;26.40;;;13.30;;
44137;SDS011;29800;55.942;37.314;2024-02-21T13:52:43;24.83;;;12.98;;
44137;SDS011;29800;55.942;37.314;2024-02-21T13:55:09;24.95;;;12.98;;
44137;SDS011;29800;55.942;37.314;2024-02-21T13:57:35;25.38;;;13.88;;
44137;SDS011;29800;55.942;37.314;2024-02-21T14:00:05;26.73;;;13.23;;
44137;SDS011;29800;55.942;37.314;2024-02-21T14:02:39;22.83;;;12.38;;
44137;SDS011;29800;55.942;37.314;2024-02-21T14:05:05;22.58;;;13.43;;
44137;SDS011;29800;55.942;37.314;2024-02-21T14:07:32;26.92;;;13.90;;
44137;SDS011;29800;55.942;37.314;2024-02-21T14:10:02;22.95;;;12.75;;
44137;SDS011;29800;55.942;37.314;2024-02-21T14:12:31;24.17;;;14.07;;
44137;SDS011;29800;55.942;37.314;2024-02-21T14:14:58;30.48;;;13.52;;
44137;SDS011;29800;55.942;37.314;2024-02-21T14:17:24;24.48;;;13.68;;
44137;SDS011;29800;55.942;37.314;2024-02-21T14:19:51;26.35;;;12.65;;